N551ES KBLI-KHND
Flight info
| Callsign | N551ES |
|---|---|
| Flight time | N/A |
| Altitude | 31000 |
| Route | KLSHN2 KLSHN SEA PAAGE Q11 PAWLI Q13 FUULL GAMES2 |
| Aircraft | B350/L-VGDW/C |
Departure
| Time | 2026-05-04 01:11 |
|---|---|
| Airport | Bellingham International Airport (KBLI) |
Arrival
| Time | N/A |
|---|---|
| Airport | Henderson Executive Airport (KHND) |
| Time | Latitude | Longitude | Altitude | Speed | Heading |
|---|---|---|---|---|---|
| 2026-05-04 00:58 | 48.79060 | -122.53499 | 159 ft | 0 kts | 270° |
| 2026-05-04 01:03 | 48.79071 | -122.53522 | 159 ft | 8 kts | 352° |
| 2026-05-04 01:03 | 48.79082 | -122.53523 | 159 ft | 0 kts | 354° |
| 2026-05-04 01:07 | 48.79083 | -122.53523 | 159 ft | 0 kts | 354° |
| 2026-05-04 01:07 | 48.79062 | -122.53576 | 159 ft | 18 kts | 194° |
| 2026-05-04 01:07 | 48.78856 | -122.53579 | 164 ft | 36 kts | 177° |
| 2026-05-04 01:08 | 48.78583 | -122.53584 | 169 ft | 26 kts | 178° |
| 2026-05-04 01:08 | 48.78418 | -122.53607 | 168 ft | 29 kts | 197° |
| 2026-05-04 01:08 | 48.78375 | -122.53634 | 167 ft | 0 kts | 228° |
| 2026-05-04 01:10 | 48.78373 | -122.53637 | 167 ft | 4 kts | 232° |
| 2026-05-04 01:10 | 48.78370 | -122.53738 | 164 ft | 2 kts | 332° |
| 2026-05-04 01:10 | 48.78415 | -122.53709 | 166 ft | 8 kts | 327° |
| 2026-05-04 01:10 | 48.78532 | -122.53738 | 166 ft | 41 kts | 4° |
| 2026-05-04 01:11 | 48.79030 | -122.53748 | 158 ft | 98 kts | 0° |
| 2026-05-04 01:11 | 48.79869 | -122.53732 | 277 ft | 145 kts | 3° |
| 2026-05-04 01:11 | 48.80987 | -122.53563 | 828 ft | 174 kts | 6° |
| 2026-05-04 01:11 | 48.82135 | -122.53421 | 1871 ft | 171 kts | 1° |
| 2026-05-04 01:12 | 48.83355 | -122.53568 | 2633 ft | 182 kts | 348° |
| 2026-05-04 01:12 | 48.84487 | -122.53966 | 3570 ft | 184 kts | 349° |
| 2026-05-04 01:12 | 48.85890 | -122.54179 | 4009 ft | 207 kts | 357° |
| 2026-05-04 01:12 | 48.87299 | -122.54447 | 4869 ft | 208 kts | 343° |
| 2026-05-04 01:13 | 48.88545 | -122.55388 | 5778 ft | 207 kts | 330° |
| 2026-05-04 01:13 | 48.89643 | -122.57050 | 5778 ft | 251 kts | 292° |
| 2026-05-04 01:13 | 48.89552 | -122.59719 | 6365 ft | 260 kts | 246° |
| 2026-05-04 01:13 | 48.88452 | -122.61816 | 7002 ft | 266 kts | 217° |
| 2026-05-04 01:14 | 48.86743 | -122.63058 | 7369 ft | 278 kts | 192° |
| 2026-05-04 01:14 | 48.84858 | -122.63120 | 8105 ft | 271 kts | 166° |
| 2026-05-04 01:14 | 48.83122 | -122.62296 | 9136 ft | 255 kts | 162° |
| 2026-05-04 01:14 | 48.81470 | -122.61868 | 10199 ft | 235 kts | 172° |
| 2026-05-04 01:15 | 48.79957 | -122.61472 | 10752 ft | 215 kts | 163° |
| 2026-05-04 01:15 | 48.78507 | -122.60955 | 10835 ft | 220 kts | 168° |
| 2026-05-04 01:15 | 48.77029 | -122.60581 | 11305 ft | 196 kts | 163° |
| 2026-05-04 01:15 | 48.75902 | -122.60092 | 12005 ft | 165 kts | 159° |
| 2026-05-04 01:16 | 48.74644 | -122.59544 | 11450 ft | 212 kts | 164° |
| 2026-05-04 01:16 | 48.73235 | -122.59010 | 11822 ft | 178 kts | 153° |
| 2026-05-04 01:16 | 48.72409 | -122.58463 | 12274 ft | 165 kts | 160° |
| 2026-05-04 01:16 | 48.71304 | -122.57780 | 12493 ft | 168 kts | 156° |
| 2026-05-04 01:17 | 48.70779 | -122.57556 | 12854 ft | 168 kts | 167° |
| 2026-05-04 01:17 | 48.69412 | -122.57525 | 12718 ft | 216 kts | 178° |
| 2026-05-04 01:17 | 48.68079 | -122.57478 | 13969 ft | 179 kts | 179° |
| 2026-05-04 01:17 | 48.66725 | -122.57577 | 14059 ft | 215 kts | 181° |
| 2026-05-04 01:18 | 48.65296 | -122.57632 | 15023 ft | 184 kts | 174° |
| 2026-05-04 01:18 | 48.64078 | -122.57553 | 15537 ft | 195 kts | 181° |
| 2026-05-04 01:18 | 48.62606 | -122.58083 | 15478 ft | 229 kts | 200° |
| 2026-05-04 01:18 | 48.61234 | -122.58620 | 16614 ft | 196 kts | 184° |
| 2026-05-04 01:19 | 48.59752 | -122.58842 | 16464 ft | 237 kts | 190° |
| 2026-05-04 01:19 | 48.58176 | -122.59439 | 17154 ft | 225 kts | 192° |
| 2026-05-04 01:19 | 48.56750 | -122.59902 | 17857 ft | 221 kts | 192° |
| 2026-05-04 01:19 | 48.55132 | -122.60729 | 17749 ft | 250 kts | 202° |
| 2026-05-04 01:20 | 48.53738 | -122.61852 | 18923 ft | 214 kts | 217° |
| 2026-05-04 01:20 | 48.53007 | -122.62786 | 19505 ft | 201 kts | 227° |